sensor_id;sensor_type;location;lat;lon;timestamp;P1;durP1;ratioP1;P2;durP2;ratioP2
52816;SDS011;38687;43.330;21.924;2022-10-16T00:01:12;6.68;;;4.95;;
52816;SDS011;38687;43.330;21.924;2022-10-16T00:03:38;8.32;;;5.15;;
52816;SDS011;38687;43.330;21.924;2022-10-16T00:06:08;8.25;;;4.70;;
52816;SDS011;38687;43.330;21.924;2022-10-16T00:08:34;9.65;;;5.43;;
52816;SDS011;38687;43.330;21.924;2022-10-16T00:11:01;9.38;;;5.45;;
52816;SDS011;38687;43.330;21.924;2022-10-16T00:13:29;8.93;;;5.13;;
52816;SDS011;38687;43.330;21.924;2022-10-16T00:15:55;9.48;;;4.97;;
52816;SDS011;38687;43.330;21.924;2022-10-16T00:18:28;5.88;;;4.53;;
52816;SDS011;38687;43.330;21.924;2022-10-16T00:21:08;9.88;;;5.78;;
52816;SDS011;38687;43.330;21.924;2022-10-16T00:23:38;7.88;;;5.55;;
52816;SDS011;38687;43.330;21.924;2022-10-16T00:26:05;9.18;;;5.43;;
52816;SDS011;38687;43.330;21.924;2022-10-16T00:28:32;7.35;;;6.20;;
52816;SDS011;38687;43.330;21.924;2022-10-16T00:30:58;8.63;;;5.93;;
52816;SDS011;38687;43.330;21.924;2022-10-16T00:33:24;11.30;;;6.78;;
52816;SDS011;38687;43.330;21.924;2022-10-16T00:35:49;8.52;;;6.32;;
52816;SDS011;38687;43.330;21.924;2022-10-16T00:38:15;11.85;;;6.28;;
52816;SDS011;38687;43.330;21.924;2022-10-16T00:40:41;9.32;;;6.15;;
52816;SDS011;38687;43.330;21.924;2022-10-16T00:48:30;9.88;;;5.57;;
52816;SDS011;38687;43.330;21.924;2022-10-16T00:50:59;8.18;;;5.75;;
52816;SDS011;38687;43.330;21.924;2022-10-16T00:53:24;9.05;;;5.53;;
52816;SDS011;38687;43.330;21.924;2022-10-16T00:55:50;8.40;;;5.07;;
52816;SDS011;38687;43.330;21.924;2022-10-16T00:58:16;9.65;;;6.10;;
52816;SDS011;38687;43.330;21.924;2022-10-16T01:00:41;10.68;;;5.85;;
52816;SDS011;38687;43.330;21.924;2022-10-16T01:06:01;11.57;;;5.60;;
52816;SDS011;38687;43.330;21.924;2022-10-16T01:08:43;7.15;;;5.35;;
52816;SDS011;38687;43.330;21.924;2022-10-16T01:11:33;9.38;;;5.30;;
52816;SDS011;38687;43.330;21.924;2022-10-16T01:14:00;10.38;;;6.10;;
52816;SDS011;38687;43.330;21.924;2022-10-16T01:16:36;9.30;;;5.30;;
52816;SDS011;38687;43.330;21.924;2022-10-16T01:22:11;7.43;;;4.20;;
52816;SDS011;38687;43.330;21.924;2022-10-16T01:24:43;8.35;;;5.10;;
52816;SDS011;38687;43.330;21.924;2022-10-16T01:35:09;6.90;;;4.97;;
52816;SDS011;38687;43.330;21.924;2022-10-16T01:37:41;6.47;;;4.32;;
52816;SDS011;38687;43.330;21.924;2022-10-16T01:40:12;6.03;;;4.30;;
52816;SDS011;38687;43.330;21.924;2022-10-16T01:42:41;5.60;;;4.22;;
52816;SDS011;38687;43.330;21.924;2022-10-16T01:45:10;7.25;;;4.50;;
52816;SDS011;38687;43.330;21.924;2022-10-16T01:47:38;9.82;;;5.07;;
52816;SDS011;38687;43.330;21.924;2022-10-16T01:50:04;7.18;;;4.63;;
52816;SDS011;38687;43.330;21.924;2022-10-16T01:52:31;6.90;;;4.45;;
52816;SDS011;38687;43.330;21.924;2022-10-16T01:54:57;7.20;;;4.57;;
52816;SDS011;38687;43.330;21.924;2022-10-16T01:57:23;4.90;;;3.72;;
52816;SDS011;38687;43.330;21.924;2022-10-16T01:59:52;5.93;;;4.60;;
52816;SDS011;38687;43.330;21.924;2022-10-16T02:02:20;8.45;;;5.70;;
52816;SDS011;38687;43.330;21.924;2022-10-16T02:04:51;11.55;;;6.15;;
52816;SDS011;38687;43.330;21.924;2022-10-16T02:07:20;6.57;;;5.25;;
52816;SDS011;38687;43.330;21.924;2022-10-16T02:09:45;7.82;;;4.95;;
52816;SDS011;38687;43.330;21.924;2022-10-16T02:12:25;7.03;;;4.78;;
52816;SDS011;38687;43.330;21.924;2022-10-16T02:14:52;7.55;;;4.15;;
52816;SDS011;38687;43.330;21.924;2022-10-16T02:17:18;6.05;;;4.18;;
52816;SDS011;38687;43.330;21.924;2022-10-16T02:19:47;6.55;;;4.78;;
52816;SDS011;38687;43.330;21.924;2022-10-16T02:22:22;7.10;;;4.70;;
52816;SDS011;38687;43.330;21.924;2022-10-16T02:24:54;6.30;;;4.72;;
52816;SDS011;38687;43.330;21.924;2022-10-16T02:29:48;8.75;;;4.82;;
52816;SDS011;38687;43.330;21.924;2022-10-16T02:32:17;7.53;;;4.78;;
52816;SDS011;38687;43.330;21.924;2022-10-16T02:34:48;6.90;;;4.68;;
52816;SDS011;38687;43.330;21.924;2022-10-16T02:37:14;7.25;;;4.38;;
52816;SDS011;38687;43.330;21.924;2022-10-16T02:39:41;9.02;;;5.15;;
52816;SDS011;38687;43.330;21.924;2022-10-16T02:42:11;5.00;;;4.40;;
52816;SDS011;38687;43.330;21.924;2022-10-16T02:44:38;7.68;;;4.60;;
52816;SDS011;38687;43.330;21.924;2022-10-16T02:47:06;10.80;;;6.07;;
52816;SDS011;38687;43.330;21.924;2022-10-16T02:49:32;9.30;;;5.18;;
52816;SDS011;38687;43.330;21.924;2022-10-16T02:51:57;8.10;;;5.22;;
52816;SDS011;38687;43.330;21.924;2022-10-16T02:54:22;7.65;;;4.85;;
52816;SDS011;38687;43.330;21.924;2022-10-16T02:56:48;7.68;;;4.97;;
52816;SDS011;38687;43.330;21.924;2022-10-16T02:59:14;11.38;;;6.10;;
52816;SDS011;38687;43.330;21.924;2022-10-16T03:01:43;13.02;;;6.78;;
52816;SDS011;38687;43.330;21.924;2022-10-16T03:04:08;12.57;;;6.32;;
52816;SDS011;38687;43.330;21.924;2022-10-16T03:06:34;11.98;;;6.55;;
52816;SDS011;38687;43.330;21.924;2022-10-16T03:08:59;10.60;;;6.60;;
52816;SDS011;38687;43.330;21.924;2022-10-16T03:11:25;10.05;;;6.30;;
52816;SDS011;38687;43.330;21.924;2022-10-16T03:13:51;11.80;;;6.40;;
52816;SDS011;38687;43.330;21.924;2022-10-16T03:16:17;12.73;;;6.72;;
52816;SDS011;38687;43.330;21.924;2022-10-16T03:18:42;11.88;;;6.60;;
52816;SDS011;38687;43.330;21.924;2022-10-16T03:21:13;11.75;;;7.38;;
52816;SDS011;38687;43.330;21.924;2022-10-16T03:23:39;11.38;;;6.40;;
52816;SDS011;38687;43.330;21.924;2022-10-16T03:26:04;11.38;;;7.20;;
52816;SDS011;38687;43.330;21.924;2022-10-16T03:28:30;8.52;;;5.30;;
52816;SDS011;38687;43.330;21.924;2022-10-16T03:30:55;8.15;;;5.20;;
52816;SDS011;38687;43.330;21.924;2022-10-16T03:33:21;9.77;;;5.53;;
52816;SDS011;38687;43.330;21.924;2022-10-16T03:35:50;9.85;;;5.22;;
52816;SDS011;38687;43.330;21.924;2022-10-16T03:38:17;7.93;;;5.05;;
52816;SDS011;38687;43.330;21.924;2022-10-16T03:40:42;10.40;;;5.05;;
52816;SDS011;38687;43.330;21.924;2022-10-16T03:43:08;7.25;;;4.45;;
52816;SDS011;38687;43.330;21.924;2022-10-16T03:45:33;7.97;;;4.55;;
52816;SDS011;38687;43.330;21.924;2022-10-16T03:47:59;9.27;;;5.68;;
52816;SDS011;38687;43.330;21.924;2022-10-16T03:50:24;10.27;;;5.00;;
52816;SDS011;38687;43.330;21.924;2022-10-16T03:52:49;7.18;;;4.88;;
52816;SDS011;38687;43.330;21.924;2022-10-16T03:55:15;7.25;;;5.18;;
52816;SDS011;38687;43.330;21.924;2022-10-16T03:57:40;6.72;;;3.95;;
52816;SDS011;38687;43.330;21.924;2022-10-16T04:00:06;4.38;;;3.58;;
52816;SDS011;38687;43.330;21.924;2022-10-16T04:02:32;7.78;;;4.32;;
52816;SDS011;38687;43.330;21.924;2022-10-16T04:04:57;4.85;;;4.18;;
52816;SDS011;38687;43.330;21.924;2022-10-16T04:07:29;6.53;;;3.72;;
52816;SDS011;38687;43.330;21.924;2022-10-16T04:09:54;6.18;;;4.00;;
52816;SDS011;38687;43.330;21.924;2022-10-16T04:12:19;5.65;;;3.80;;
52816;SDS011;38687;43.330;21.924;2022-10-16T04:14:54;8.45;;;5.47;;
52816;SDS011;38687;43.330;21.924;2022-10-16T04:17:19;8.85;;;5.18;;
52816;SDS011;38687;43.330;21.924;2022-10-16T04:19:45;8.68;;;5.57;;
52816;SDS011;38687;43.330;21.924;2022-10-16T04:22:10;9.25;;;5.22;;
52816;SDS011;38687;43.330;21.924;2022-10-16T04:24:36;7.50;;;5.03;;
52816;SDS011;38687;43.330;21.924;2022-10-16T04:27:04;7.47;;;4.93;;
52816;SDS011;38687;43.330;21.924;2022-10-16T04:29:29;8.50;;;5.05;;
52816;SDS011;38687;43.330;21.924;2022-10-16T04:31:55;7.10;;;4.50;;
52816;SDS011;38687;43.330;21.924;2022-10-16T04:34:20;9.68;;;5.88;;
52816;SDS011;38687;43.330;21.924;2022-10-16T04:36:49;6.80;;;4.78;;
52816;SDS011;38687;43.330;21.924;2022-10-16T04:39:15;8.13;;;4.97;;
52816;SDS011;38687;43.330;21.924;2022-10-16T04:41:40;10.18;;;5.45;;
52816;SDS011;38687;43.330;21.924;2022-10-16T04:44:06;11.52;;;7.00;;
52816;SDS011;38687;43.330;21.924;2022-10-16T04:46:31;11.25;;;8.40;;
52816;SDS011;38687;43.330;21.924;2022-10-16T04:48:57;12.25;;;8.98;;
52816;SDS011;38687;43.330;21.924;2022-10-16T04:51:22;13.27;;;8.30;;
52816;SDS011;38687;43.330;21.924;2022-10-16T04:53:51;13.10;;;7.97;;
52816;SDS011;38687;43.330;21.924;2022-10-16T04:56:17;11.35;;;7.35;;
52816;SDS011;38687;43.330;21.924;2022-10-16T04:58:42;12.20;;;7.35;;
52816;SDS011;38687;43.330;21.924;2022-10-16T05:01:07;9.95;;;6.80;;
52816;SDS011;38687;43.330;21.924;2022-10-16T05:03:33;11.38;;;7.50;;
52816;SDS011;38687;43.330;21.924;2022-10-16T05:05:59;12.98;;;7.75;;
52816;SDS011;38687;43.330;21.924;2022-10-16T05:08:24;15.52;;;8.55;;
52816;SDS011;38687;43.330;21.924;2022-10-16T05:10:52;12.10;;;8.18;;
52816;SDS011;38687;43.330;21.924;2022-10-16T05:13:18;13.20;;;10.15;;
52816;SDS011;38687;43.330;21.924;2022-10-16T05:15:46;11.15;;;9.75;;
52816;SDS011;38687;43.330;21.924;2022-10-16T05:18:13;13.57;;;8.05;;
52816;SDS011;38687;43.330;21.924;2022-10-16T05:20:41;9.23;;;6.72;;
52816;SDS011;38687;43.330;21.924;2022-10-16T05:23:10;10.88;;;6.95;;
52816;SDS011;38687;43.330;21.924;2022-10-16T05:25:36;9.65;;;7.68;;
52816;SDS011;38687;43.330;21.924;2022-10-16T05:28:05;13.50;;;8.05;;
52816;SDS011;38687;43.330;21.924;2022-10-16T05:30:30;9.70;;;7.07;;
52816;SDS011;38687;43.330;21.924;2022-10-16T05:32:55;12.25;;;8.50;;
52816;SDS011;38687;43.330;21.924;2022-10-16T05:35:21;13.23;;;8.63;;
52816;SDS011;38687;43.330;21.924;2022-10-16T05:37:47;17.50;;;10.43;;
52816;SDS011;38687;43.330;21.924;2022-10-16T05:40:15;15.98;;;10.63;;
52816;SDS011;38687;43.330;21.924;2022-10-16T05:42:41;14.57;;;9.43;;
52816;SDS011;38687;43.330;21.924;2022-10-16T05:45:08;12.70;;;8.90;;
52816;SDS011;38687;43.330;21.924;2022-10-16T05:47:35;12.90;;;8.77;;
52816;SDS011;38687;43.330;21.924;2022-10-16T05:50:00;11.95;;;7.68;;
52816;SDS011;38687;43.330;21.924;2022-10-16T05:52:29;13.85;;;8.98;;
52816;SDS011;38687;43.330;21.924;2022-10-16T05:54:54;10.75;;;7.72;;
52816;SDS011;38687;43.330;21.924;2022-10-16T05:57:20;13.57;;;8.43;;
52816;SDS011;38687;43.330;21.924;2022-10-16T05:59:45;11.63;;;8.55;;
52816;SDS011;38687;43.330;21.924;2022-10-16T06:02:11;14.13;;;8.65;;
52816;SDS011;38687;43.330;21.924;2022-10-16T06:04:37;10.65;;;7.45;;
52816;SDS011;38687;43.330;21.924;2022-10-16T06:07:06;11.02;;;7.80;;
52816;SDS011;38687;43.330;21.924;2022-10-16T06:09:34;12.57;;;8.48;;
52816;SDS011;38687;43.330;21.924;2022-10-16T06:12:00;9.60;;;7.55;;
52816;SDS011;38687;43.330;21.924;2022-10-16T06:14:25;11.18;;;8.15;;
52816;SDS011;38687;43.330;21.924;2022-10-16T06:16:57;12.35;;;7.47;;
52816;SDS011;38687;43.330;21.924;2022-10-16T06:19:22;12.73;;;6.88;;
52816;SDS011;38687;43.330;21.924;2022-10-16T06:21:48;11.95;;;7.22;;
52816;SDS011;38687;43.330;21.924;2022-10-16T06:24:13;15.80;;;11.10;;
52816;SDS011;38687;43.330;21.924;2022-10-16T06:26:39;16.05;;;11.60;;
52816;SDS011;38687;43.330;21.924;2022-10-16T06:29:10;12.63;;;8.57;;
52816;SDS011;38687;43.330;21.924;2022-10-16T06:31:36;10.00;;;7.30;;
52816;SDS011;38687;43.330;21.924;2022-10-16T06:34:01;11.07;;;7.82;;
52816;SDS011;38687;43.330;21.924;2022-10-16T06:36:27;7.03;;;6.10;;
52816;SDS011;38687;43.330;21.924;2022-10-16T06:38:53;10.82;;;7.63;;
52816;SDS011;38687;43.330;21.924;2022-10-16T06:41:19;8.75;;;6.30;;
52816;SDS011;38687;43.330;21.924;2022-10-16T06:43:46;6.85;;;5.22;;
52816;SDS011;38687;43.330;21.924;2022-10-16T06:46:12;7.10;;;5.57;;
52816;SDS011;38687;43.330;21.924;2022-10-16T06:48:39;8.57;;;5.47;;
52816;SDS011;38687;43.330;21.924;2022-10-16T06:51:12;12.23;;;5.78;;
52816;SDS011;38687;43.330;21.924;2022-10-16T06:53:40;9.48;;;5.38;;
52816;SDS011;38687;43.330;21.924;2022-10-16T06:56:10;7.60;;;5.13;;
52816;SDS011;38687;43.330;21.924;2022-10-16T06:58:37;7.93;;;4.95;;
52816;SDS011;38687;43.330;21.924;2022-10-16T07:01:03;6.82;;;4.18;;
52816;SDS011;38687;43.330;21.924;2022-10-16T07:03:29;6.05;;;4.25;;
52816;SDS011;38687;43.330;21.924;2022-10-16T07:06:00;6.10;;;4.30;;
52816;SDS011;38687;43.330;21.924;2022-10-16T07:08:27;6.00;;;4.63;;
52816;SDS011;38687;43.330;21.924;2022-10-16T07:11:06;8.07;;;4.60;;
52816;SDS011;38687;43.330;21.924;2022-10-16T07:13:33;6.90;;;4.82;;
52816;SDS011;38687;43.330;21.924;2022-10-16T07:16:06;5.82;;;4.47;;
52816;SDS011;38687;43.330;21.924;2022-10-16T07:18:45;7.78;;;4.20;;
52816;SDS011;38687;43.330;21.924;2022-10-16T07:21:21;4.80;;;3.90;;
52816;SDS011;38687;43.330;21.924;2022-10-16T07:26:16;12.77;;;9.68;;
52816;SDS011;38687;43.330;21.924;2022-10-16T07:28:42;13.90;;;9.07;;
52816;SDS011;38687;43.330;21.924;2022-10-16T07:31:10;13.02;;;9.75;;
52816;SDS011;38687;43.330;21.924;2022-10-16T07:33:37;14.68;;;9.57;;
52816;SDS011;38687;43.330;21.924;2022-10-16T07:36:03;14.82;;;9.30;;
52816;SDS011;38687;43.330;21.924;2022-10-16T07:38:29;17.55;;;8.98;;
52816;SDS011;38687;43.330;21.924;2022-10-16T07:40:55;15.05;;;9.20;;
52816;SDS011;38687;43.330;21.924;2022-10-16T07:43:24;11.52;;;7.82;;
52816;SDS011;38687;43.330;21.924;2022-10-16T07:45:50;11.40;;;8.07;;
52816;SDS011;38687;43.330;21.924;2022-10-16T07:48:16;13.38;;;8.63;;
52816;SDS011;38687;43.330;21.924;2022-10-16T07:50:42;12.48;;;8.35;;
52816;SDS011;38687;43.330;21.924;2022-10-16T07:53:08;9.30;;;7.60;;
52816;SDS011;38687;43.330;21.924;2022-10-16T07:55:34;11.80;;;7.47;;
52816;SDS011;38687;43.330;21.924;2022-10-16T07:57:59;10.98;;;7.63;;
52816;SDS011;38687;43.330;21.924;2022-10-16T08:00:24;10.13;;;7.60;;
52816;SDS011;38687;43.330;21.924;2022-10-16T08:02:50;14.32;;;7.78;;
52816;SDS011;38687;43.330;21.924;2022-10-16T08:05:15;10.18;;;7.47;;
52816;SDS011;38687;43.330;21.924;2022-10-16T08:07:41;10.63;;;7.45;;
52816;SDS011;38687;43.330;21.924;2022-10-16T08:10:13;15.32;;;8.95;;
52816;SDS011;38687;43.330;21.924;2022-10-16T08:12:41;10.83;;;7.77;;
52816;SDS011;38687;43.330;21.924;2022-10-16T08:15:07;11.15;;;6.93;;
52816;SDS011;38687;43.330;21.924;2022-10-16T08:17:36;8.60;;;6.28;;
52816;SDS011;38687;43.330;21.924;2022-10-16T08:20:02;9.52;;;6.63;;
52816;SDS011;38687;43.330;21.924;2022-10-16T08:22:27;7.97;;;6.38;;
52816;SDS011;38687;43.330;21.924;2022-10-16T08:24:53;10.07;;;6.55;;
52816;SDS011;38687;43.330;21.924;2022-10-16T08:27:18;11.07;;;6.90;;
52816;SDS011;38687;43.330;21.924;2022-10-16T08:29:48;11.02;;;6.80;;
52816;SDS011;38687;43.330;21.924;2022-10-16T08:32:13;8.63;;;6.45;;
52816;SDS011;38687;43.330;21.924;2022-10-16T08:34:39;12.48;;;7.15;;
52816;SDS011;38687;43.330;21.924;2022-10-16T08:37:04;10.25;;;6.60;;
52816;SDS011;38687;43.330;21.924;2022-10-16T08:39:36;8.57;;;6.57;;
52816;SDS011;38687;43.330;21.924;2022-10-16T08:42:15;10.07;;;6.80;;
52816;SDS011;38687;43.330;21.924;2022-10-16T08:47:43;8.38;;;6.13;;
52816;SDS011;38687;43.330;21.924;2022-10-16T08:50:14;10.02;;;6.90;;
52816;SDS011;38687;43.330;21.924;2022-10-16T08:52:52;11.30;;;6.60;;
52816;SDS011;38687;43.330;21.924;2022-10-16T08:55:41;10.25;;;7.40;;
52816;SDS011;38687;43.330;21.924;2022-10-16T08:58:11;9.38;;;6.53;;
52816;SDS011;38687;43.330;21.924;2022-10-16T09:00:38;8.40;;;6.68;;
52816;SDS011;38687;43.330;21.924;2022-10-16T09:13:40;7.45;;;6.18;;
52816;SDS011;38687;43.330;21.924;2022-10-16T09:16:19;8.40;;;6.30;;
52816;SDS011;38687;43.330;21.924;2022-10-16T09:21:37;8.80;;;5.63;;
52816;SDS011;38687;43.330;21.924;2022-10-16T09:24:18;9.02;;;6.50;;
52816;SDS011;38687;43.330;21.924;2022-10-16T09:26:45;6.38;;;5.68;;
52816;SDS011;38687;43.330;21.924;2022-10-16T09:29:11;7.57;;;6.07;;
52816;SDS011;38687;43.330;21.924;2022-10-16T09:31:38;7.70;;;6.00;;
52816;SDS011;38687;43.330;21.924;2022-10-16T09:34:03;8.80;;;5.55;;
52816;SDS011;38687;43.330;21.924;2022-10-16T09:36:31;9.82;;;6.22;;
52816;SDS011;38687;43.330;21.924;2022-10-16T09:39:02;9.55;;;5.90;;
52816;SDS011;38687;43.330;21.924;2022-10-16T09:41:29;8.02;;;4.97;;
52816;SDS011;38687;43.330;21.924;2022-10-16T09:43:55;8.95;;;6.18;;
52816;SDS011;38687;43.330;21.924;2022-10-16T09:46:40;8.10;;;6.05;;
52816;SDS011;38687;43.330;21.924;2022-10-16T09:49:22;7.43;;;5.28;;
52816;SDS011;38687;43.330;21.924;2022-10-16T09:51:49;8.88;;;5.72;;
52816;SDS011;38687;43.330;21.924;2022-10-16T09:54:16;8.15;;;5.55;;
52816;SDS011;38687;43.330;21.924;2022-10-16T09:56:43;8.63;;;5.90;;
52816;SDS011;38687;43.330;21.924;2022-10-16T09:59:15;6.63;;;5.70;;
52816;SDS011;38687;43.330;21.924;2022-10-16T10:01:51;9.85;;;5.30;;
52816;SDS011;38687;43.330;21.924;2022-10-16T10:04:20;7.30;;;5.43;;
52816;SDS011;38687;43.330;21.924;2022-10-16T10:06:54;7.50;;;4.95;;
52816;SDS011;38687;43.330;21.924;2022-10-16T10:09:39;6.47;;;4.93;;
52816;SDS011;38687;43.330;21.924;2022-10-16T10:12:05;7.70;;;5.15;;
52816;SDS011;38687;43.330;21.924;2022-10-16T10:14:35;8.32;;;5.60;;
52816;SDS011;38687;43.330;21.924;2022-10-16T10:17:17;7.03;;;4.90;;
52816;SDS011;38687;43.330;21.924;2022-10-16T10:19:51;5.95;;;4.70;;
52816;SDS011;38687;43.330;21.924;2022-10-16T10:27:48;6.45;;;4.55;;
52816;SDS011;38687;43.330;21.924;2022-10-16T10:30:21;6.43;;;4.30;;
52816;SDS011;38687;43.330;21.924;2022-10-16T11:01:13;6.40;;;5.32;;
52816;SDS011;38687;43.330;21.924;2022-10-16T11:03:42;9.05;;;5.22;;
52816;SDS011;38687;43.330;21.924;2022-10-16T11:06:12;10.63;;;5.03;;
52816;SDS011;38687;43.330;21.924;2022-10-16T11:08:47;6.75;;;5.00;;
52816;SDS011;38687;43.330;21.924;2022-10-16T11:11:25;7.25;;;4.55;;
52816;SDS011;38687;43.330;21.924;2022-10-16T11:16:43;6.80;;;3.70;;
52816;SDS011;38687;43.330;21.924;2022-10-16T11:21:54;5.25;;;3.60;;
52816;SDS011;38687;43.330;21.924;2022-10-16T11:24:35;5.82;;;4.35;;
52816;SDS011;38687;43.330;21.924;2022-10-16T11:27:15;6.60;;;4.72;;
52816;SDS011;38687;43.330;21.924;2022-10-16T11:29:51;5.00;;;3.85;;
52816;SDS011;38687;43.330;21.924;2022-10-16T11:35:23;4.35;;;3.65;;
52816;SDS011;38687;43.330;21.924;2022-10-16T11:38:02;4.72;;;3.97;;
52816;SDS011;38687;43.330;21.924;2022-10-16T11:40:30;4.50;;;3.40;;
52816;SDS011;38687;43.330;21.924;2022-10-16T11:43:07;4.95;;;3.33;;
52816;SDS011;38687;43.330;21.924;2022-10-16T11:45:52;5.78;;;3.92;;
52816;SDS011;38687;43.330;21.924;2022-10-16T11:48:42;4.88;;;3.83;;
52816;SDS011;38687;43.330;21.924;2022-10-16T11:51:26;6.85;;;4.30;;
52816;SDS011;38687;43.330;21.924;2022-10-16T11:54:04;8.90;;;4.72;;
52816;SDS011;38687;43.330;21.924;2022-10-16T11:56:31;5.88;;;3.55;;
52816;SDS011;38687;43.330;21.924;2022-10-16T11:59:06;4.43;;;3.55;;
52816;SDS011;38687;43.330;21.924;2022-10-16T12:04:49;4.85;;;3.92;;
52816;SDS011;38687;43.330;21.924;2022-10-16T12:07:22;4.90;;;3.70;;
52816;SDS011;38687;43.330;21.924;2022-10-16T12:09:50;4.88;;;3.75;;
52816;SDS011;38687;43.330;21.924;2022-10-16T12:12:38;5.40;;;4.00;;
52816;SDS011;38687;43.330;21.924;2022-10-16T12:15:21;6.60;;;3.75;;
52816;SDS011;38687;43.330;21.924;2022-10-16T12:17:54;4.40;;;3.25;;
52816;SDS011;38687;43.330;21.924;2022-10-16T12:28:06;6.07;;;3.65;;
52816;SDS011;38687;43.330;21.924;2022-10-16T12:30:42;4.57;;;3.40;;
52816;SDS011;38687;43.330;21.924;2022-10-16T12:36:15;4.78;;;4.20;;
52816;SDS011;38687;43.330;21.924;2022-10-16T12:38:51;6.30;;;4.15;;
52816;SDS011;38687;43.330;21.924;2022-10-16T12:41:28;6.07;;;3.72;;
52816;SDS011;38687;43.330;21.924;2022-10-16T12:43:58;4.93;;;4.03;;
52816;SDS011;38687;43.330;21.924;2022-10-16T12:51:38;6.93;;;4.18;;
52816;SDS011;38687;43.330;21.924;2022-10-16T12:56:59;5.88;;;4.20;;
52816;SDS011;38687;43.330;21.924;2022-10-16T13:22:03;2.67;;;2.08;;
52816;SDS011;38687;43.330;21.924;2022-10-16T13:29:36;2.97;;;1.70;;
52816;SDS011;38687;43.330;21.924;2022-10-16T13:32:06;3.10;;;2.35;;
52816;SDS011;38687;43.330;21.924;2022-10-16T13:34:41;4.75;;;2.42;;
52816;SDS011;38687;43.330;21.924;2022-10-16T13:37:16;2.20;;;1.92;;
52816;SDS011;38687;43.330;21.924;2022-10-16T13:39:50;4.13;;;2.38;;
52816;SDS011;38687;43.330;21.924;2022-10-16T13:42:28;2.72;;;2.30;;
52816;SDS011;38687;43.330;21.924;2022-10-16T13:44:54;2.75;;;2.47;;
52816;SDS011;38687;43.330;21.924;2022-10-16T13:47:22;5.95;;;2.28;;
52816;SDS011;38687;43.330;21.924;2022-10-16T13:52:37;2.90;;;2.22;;
52816;SDS011;38687;43.330;21.924;2022-10-16T13:55:04;5.18;;;2.60;;
52816;SDS011;38687;43.330;21.924;2022-10-16T13:57:35;3.33;;;2.90;;
52816;SDS011;38687;43.330;21.924;2022-10-16T14:00:00;4.20;;;3.10;;
52816;SDS011;38687;43.330;21.924;2022-10-16T14:04:52;5.55;;;2.88;;
52816;SDS011;38687;43.330;21.924;2022-10-16T14:07:29;4.80;;;2.70;;
52816;SDS011;38687;43.330;21.924;2022-10-16T14:09:56;3.78;;;2.60;;
52816;SDS011;38687;43.330;21.924;2022-10-16T14:12:27;2.95;;;2.20;;
52816;SDS011;38687;43.330;21.924;2022-10-16T14:14:53;3.53;;;2.58;;
52816;SDS011;38687;43.330;21.924;2022-10-16T14:17:26;3.90;;;2.90;;
52816;SDS011;38687;43.330;21.924;2022-10-16T14:19:56;5.05;;;2.80;;
52816;SDS011;38687;43.330;21.924;2022-10-16T14:24:57;3.38;;;2.83;;
52816;SDS011;38687;43.330;21.924;2022-10-16T14:30:05;3.47;;;2.90;;
52816;SDS011;38687;43.330;21.924;2022-10-16T14:32:37;3.28;;;2.63;;
52816;SDS011;38687;43.330;21.924;2022-10-16T14:35:21;4.00;;;2.67;;
52816;SDS011;38687;43.330;21.924;2022-10-16T14:37:50;4.85;;;2.78;;
52816;SDS011;38687;43.330;21.924;2022-10-16T14:40:17;4.45;;;2.63;;
52816;SDS011;38687;43.330;21.924;2022-10-16T14:42:43;4.70;;;2.83;;
52816;SDS011;38687;43.330;21.924;2022-10-16T14:45:09;4.65;;;3.13;;
52816;SDS011;38687;43.330;21.924;2022-10-16T14:47:36;8.20;;;3.33;;
52816;SDS011;38687;43.330;21.924;2022-10-16T14:50:21;5.90;;;3.38;;
52816;SDS011;38687;43.330;21.924;2022-10-16T14:52:47;4.82;;;3.22;;
52816;SDS011;38687;43.330;21.924;2022-10-16T14:55:12;5.45;;;3.45;;
52816;SDS011;38687;43.330;21.924;2022-10-16T14:57:38;5.97;;;3.95;;
52816;SDS011;38687;43.330;21.924;2022-10-16T15:00:25;5.32;;;3.67;;
52816;SDS011;38687;43.330;21.924;2022-10-16T15:02:50;5.95;;;3.03;;
52816;SDS011;38687;43.330;21.924;2022-10-16T15:05:17;3.55;;;3.25;;
52816;SDS011;38687;43.330;21.924;2022-10-16T15:07:45;4.97;;;3.00;;
52816;SDS011;38687;43.330;21.924;2022-10-16T15:10:11;6.85;;;3.70;;
52816;SDS011;38687;43.330;21.924;2022-10-16T15:12:38;5.65;;;3.58;;
52816;SDS011;38687;43.330;21.924;2022-10-16T15:17:48;5.22;;;3.38;;
52816;SDS011;38687;43.330;21.924;2022-10-16T15:20:17;3.67;;;3.17;;
52816;SDS011;38687;43.330;21.924;2022-10-16T15:22:42;4.55;;;3.13;;
52816;SDS011;38687;43.330;21.924;2022-10-16T15:27:45;5.57;;;3.88;;
52816;SDS011;38687;43.330;21.924;2022-10-16T15:30:11;6.75;;;4.20;;
52816;SDS011;38687;43.330;21.924;2022-10-16T15:32:36;6.55;;;3.92;;
52816;SDS011;38687;43.330;21.924;2022-10-16T15:35:02;5.28;;;3.70;;
52816;SDS011;38687;43.330;21.924;2022-10-16T15:37:27;3.97;;;3.50;;
52816;SDS011;38687;43.330;21.924;2022-10-16T15:39:53;7.15;;;3.80;;
52816;SDS011;38687;43.330;21.924;2022-10-16T15:42:18;4.55;;;3.20;;
52816;SDS011;38687;43.330;21.924;2022-10-16T15:44:43;4.78;;;3.38;;
52816;SDS011;38687;43.330;21.924;2022-10-16T15:47:09;5.82;;;3.95;;
52816;SDS011;38687;43.330;21.924;2022-10-16T15:49:34;7.55;;;4.32;;
52816;SDS011;38687;43.330;21.924;2022-10-16T15:52:00;6.28;;;4.35;;
52816;SDS011;38687;43.330;21.924;2022-10-16T15:54:25;9.52;;;4.72;;
52816;SDS011;38687;43.330;21.924;2022-10-16T15:56:51;5.05;;;4.25;;
52816;SDS011;38687;43.330;21.924;2022-10-16T15:59:16;4.40;;;3.35;;
52816;SDS011;38687;43.330;21.924;2022-10-16T16:01:41;4.25;;;3.15;;
52816;SDS011;38687;43.330;21.924;2022-10-16T16:04:07;4.80;;;3.85;;
52816;SDS011;38687;43.330;21.924;2022-10-16T16:06:32;5.18;;;3.78;;
52816;SDS011;38687;43.330;21.924;2022-10-16T16:08:58;6.43;;;3.92;;
52816;SDS011;38687;43.330;21.924;2022-10-16T16:11:25;6.00;;;3.78;;
52816;SDS011;38687;43.330;21.924;2022-10-16T16:13:51;8.40;;;4.95;;
52816;SDS011;38687;43.330;21.924;2022-10-16T16:16:16;4.90;;;3.83;;
52816;SDS011;38687;43.330;21.924;2022-10-16T16:18:42;6.45;;;4.20;;
52816;SDS011;38687;43.330;21.924;2022-10-16T16:21:09;15.88;;;9.15;;
52816;SDS011;38687;43.330;21.924;2022-10-16T16:23:36;8.35;;;4.80;;
52816;SDS011;38687;43.330;21.924;2022-10-16T16:28:57;9.63;;;4.85;;
52816;SDS011;38687;43.330;21.924;2022-10-16T16:31:26;5.00;;;3.47;;
52816;SDS011;38687;43.330;21.924;2022-10-16T16:33:52;5.93;;;3.33;;
52816;SDS011;38687;43.330;21.924;2022-10-16T16:36:18;4.57;;;3.55;;
52816;SDS011;38687;43.330;21.924;2022-10-16T16:38:44;6.13;;;3.47;;
52816;SDS011;38687;43.330;21.924;2022-10-16T16:41:10;6.70;;;3.95;;
52816;SDS011;38687;43.330;21.924;2022-10-16T16:43:40;7.85;;;3.58;;
52816;SDS011;38687;43.330;21.924;2022-10-16T16:46:05;9.40;;;4.10;;
52816;SDS011;38687;43.330;21.924;2022-10-16T16:48:31;6.50;;;3.38;;
52816;SDS011;38687;43.330;21.924;2022-10-16T16:51:01;5.93;;;3.72;;
52816;SDS011;38687;43.330;21.924;2022-10-16T16:53:28;6.18;;;3.45;;
52816;SDS011;38687;43.330;21.924;2022-10-16T16:55:53;6.43;;;3.40;;
52816;SDS011;38687;43.330;21.924;2022-10-16T16:58:19;6.15;;;3.42;;
52816;SDS011;38687;43.330;21.924;2022-10-16T17:00:45;7.10;;;3.72;;
52816;SDS011;38687;43.330;21.924;2022-10-16T17:03:11;6.55;;;3.38;;
52816;SDS011;38687;43.330;21.924;2022-10-16T17:05:36;4.85;;;3.47;;
52816;SDS011;38687;43.330;21.924;2022-10-16T17:08:02;5.97;;;3.83;;
52816;SDS011;38687;43.330;21.924;2022-10-16T17:10:27;5.40;;;4.20;;